createdAt,value
2016-11-14T00:00:20.604Z,0
2016-11-14T00:01:20.601Z,0
2016-11-14T00:02:20.645Z,0
2016-11-14T00:03:20.963Z,0
2016-11-14T00:04:20.641Z,0
2016-11-14T00:05:20.970Z,0
2016-11-14T00:06:20.357Z,0
2016-11-14T00:07:21.003Z,0
2016-11-14T00:08:20.379Z,0
2016-11-14T00:09:21.022Z,0
2016-11-14T00:10:20.721Z,0
2016-11-14T00:11:20.768Z,0
2016-11-14T00:12:20.748Z,0
2016-11-14T00:13:20.445Z,0
2016-11-14T00:14:21.087Z,0
2016-11-14T00:15:20.827Z,0
2016-11-14T00:16:21.113Z,0
2016-11-14T00:17:21.132Z,0
2016-11-14T00:18:21.172Z,0
2016-11-14T00:19:20.834Z,0
2016-11-14T00:20:20.851Z,0
2016-11-14T00:21:21.188Z,0
2016-11-14T00:22:20.893Z,0
2016-11-14T00:23:20.891Z,0
2016-11-14T00:24:21.535Z,0
2016-11-14T00:25:20.926Z,0
2016-11-14T00:26:21.242Z,0
2016-11-14T00:27:21.254Z,0
2016-11-14T00:28:20.958Z,0
2016-11-14T00:29:21.280Z,0
2016-11-14T00:30:20.663Z,0
2016-11-14T00:31:21.651Z,0
2016-11-14T00:32:21.320Z,0
2016-11-14T00:33:21.019Z,0
2016-11-14T00:34:20.720Z,0
2016-11-14T00:35:21.063Z,0
2016-11-14T00:36:21.082Z,0
2016-11-14T00:37:21.071Z,0
2016-11-14T00:38:21.401Z,0
2016-11-14T00:39:21.408Z,0
2016-11-14T00:40:21.736Z,0
2016-11-14T00:41:21.118Z,0
2016-11-14T00:42:21.456Z,0
2016-11-14T00:43:21.463Z,0
2016-11-14T00:44:21.789Z,0
2016-11-14T00:45:21.180Z,0
2016-11-14T00:46:21.191Z,0
2016-11-14T00:47:21.196Z,0
2016-11-14T00:48:21.210Z,0
2016-11-14T00:49:21.219Z,0
2016-11-14T00:50:20.912Z,0
2016-11-14T00:51:21.248Z,0
2016-11-14T00:52:21.575Z,0
2016-11-14T00:53:21.610Z,0
2016-11-14T00:54:21.609Z,0
2016-11-14T00:55:21.622Z,0
2016-11-14T00:56:21.628Z,0
2016-11-14T00:57:21.351Z,0
2016-11-14T00:58:21.338Z,0
2016-11-14T00:59:21.349Z,0
2016-11-14T01:00:21.735Z,0
2016-11-14T01:01:21.380Z,0
2016-11-14T01:02:21.701Z,0
2016-11-14T01:03:21.732Z,0
2016-11-14T01:04:21.413Z,0
2016-11-14T01:05:21.435Z,0
2016-11-14T01:06:21.436Z,0
2016-11-14T01:07:21.469Z,0
2016-11-14T01:08:21.480Z,0
2016-11-14T01:09:21.480Z,0
2016-11-14T01:10:21.544Z,0
2016-11-14T01:11:21.502Z,0
2016-11-14T01:12:21.827Z,0
2016-11-14T01:13:21.846Z,0
2016-11-14T01:14:21.864Z,0
2016-11-14T01:15:21.905Z,0
2016-11-14T01:16:21.884Z,0
2016-11-14T01:17:21.595Z,0
2016-11-14T01:18:21.918Z,0
2016-11-14T01:19:21.624Z,0
2016-11-14T01:20:21.934Z,0
2016-11-14T01:21:21.312Z,0
2016-11-14T01:22:21.644Z,0
2016-11-14T01:23:21.968Z,0
2016-11-14T01:24:21.989Z,0
2016-11-14T01:25:22.005Z,0
2016-11-14T01:26:21.695Z,0
2016-11-14T01:27:21.387Z,0
2016-11-14T01:28:21.725Z,0
2016-11-14T01:29:21.418Z,0
2016-11-14T01:30:22.065Z,0
2016-11-14T01:31:21.765Z,0
2016-11-14T01:32:21.455Z,0
2016-11-14T01:33:22.098Z,0
2016-11-14T01:34:21.794Z,0
2016-11-14T01:35:21.807Z,0
2016-11-14T01:36:22.164Z,0
2016-11-14T01:37:22.153Z,0
2016-11-14T01:38:21.850Z,0
2016-11-14T01:39:22.171Z,0
2016-11-14T01:40:21.890Z,0
2016-11-14T01:41:22.196Z,0
2016-11-14T01:42:21.579Z,0
2016-11-14T01:43:22.230Z,0
2016-11-14T01:44:21.928Z,0
2016-11-14T01:45:22.250Z,0
2016-11-14T01:46:22.269Z,0
2016-11-14T01:47:21.960Z,0
2016-11-14T01:48:22.295Z,0
2016-11-14T01:49:21.669Z,0
2016-11-14T01:50:22.342Z,0
2016-11-14T01:51:22.022Z,0
2016-11-14T01:52:21.715Z,0
2016-11-14T01:53:22.033Z,0
2016-11-14T01:54:21.734Z,0
2016-11-14T01:55:22.063Z,0
2016-11-14T01:56:22.712Z,0
2016-11-14T01:57:22.088Z,0
2016-11-14T01:58:22.455Z,0
2016-11-14T01:59:22.427Z,0
2016-11-14T02:00:22.127Z,0
2016-11-14T02:01:22.769Z,0
2016-11-14T02:02:22.464Z,0
2016-11-14T02:03:22.162Z,0
2016-11-14T02:04:22.806Z,0
2016-11-14T02:05:22.190Z,0
2016-11-14T02:06:22.200Z,0
2016-11-14T02:07:22.868Z,0
2016-11-14T02:08:21.917Z,0
2016-11-14T02:09:22.552Z,0
2016-11-14T02:10:21.938Z,0
2016-11-14T02:11:22.266Z,0
2016-11-14T02:12:22.278Z,0
2016-11-14T02:13:22.291Z,0
2016-11-14T02:14:22.620Z,0
2016-11-14T02:15:22.318Z,0
2016-11-14T02:16:22.331Z,0
2016-11-14T02:17:22.653Z,0
2016-11-14T02:18:22.352Z,0
2016-11-14T02:19:22.691Z,0
2016-11-14T02:20:22.695Z,0
2016-11-14T02:21:22.390Z,0
2016-11-14T02:22:22.407Z,0
2016-11-14T02:23:22.418Z,0
2016-11-14T02:24:22.743Z,0
2016-11-14T02:25:22.125Z,0
2016-11-14T02:26:23.083Z,0
2016-11-14T02:27:22.151Z,0
2016-11-14T02:28:22.504Z,0
2016-11-14T02:29:23.126Z,0
2016-11-14T02:30:22.221Z,0
2016-11-14T02:31:23.183Z,0
2016-11-14T02:32:22.280Z,0
2016-11-14T02:33:22.552Z,0
2016-11-14T02:34:22.870Z,0
2016-11-14T02:35:22.572Z,0
2016-11-14T02:36:22.890Z,0
2016-11-14T02:37:22.275Z,0
2016-11-14T02:38:22.953Z,0
2016-11-14T02:39:22.615Z,0
2016-11-14T02:40:22.663Z,0
2016-11-14T02:41:22.323Z,0
2016-11-14T02:42:22.654Z,0
2016-11-14T02:43:22.684Z,0
2016-11-14T02:44:22.680Z,0
2016-11-14T02:45:22.718Z,0
2016-11-14T02:46:23.017Z,0
2016-11-14T02:47:23.345Z,0
2016-11-14T02:48:23.041Z,0
2016-11-14T02:49:22.738Z,0
2016-11-14T02:50:23.188Z,0
2016-11-14T02:51:22.764Z,0
2016-11-14T02:52:22.788Z,0
2016-11-14T02:53:23.106Z,0
2016-11-14T02:54:22.804Z,0
2016-11-14T02:55:23.131Z,0
2016-11-14T02:56:22.525Z,0
2016-11-14T02:57:22.842Z,0
2016-11-14T02:58:22.855Z,0
2016-11-14T02:59:23.182Z,0
2016-11-14T03:00:22.880Z,0
2016-11-14T03:01:23.210Z,0
2016-11-14T03:02:23.231Z,0
2016-11-14T03:03:22.916Z,0
2016-11-14T03:04:23.246Z,0
2016-11-14T03:05:23.009Z,0
2016-11-14T03:06:22.952Z,0
2016-11-14T03:07:22.964Z,0
2016-11-14T03:08:22.979Z,0
2016-11-14T03:09:22.993Z,0
2016-11-14T03:10:23.317Z,0
2016-11-14T03:11:23.015Z,0
2016-11-14T03:12:23.346Z,0
2016-11-14T03:13:23.359Z,0
2016-11-14T03:14:22.743Z,0
2016-11-14T03:15:22.750Z,0
2016-11-14T03:16:23.094Z,0
2016-11-14T03:17:23.099Z,0
2016-11-14T03:18:23.102Z,0
2016-11-14T03:19:23.119Z,0
2016-11-14T03:20:22.849Z,0
2016-11-14T03:21:23.768Z,0
2016-11-14T03:22:23.157Z,0
2016-11-14T03:23:23.584Z,0
2016-11-14T03:24:23.816Z,0
2016-11-14T03:25:23.510Z,0
2016-11-14T03:26:23.561Z,0
2016-11-14T03:27:23.216Z,0
2016-11-14T03:28:23.586Z,0
2016-11-14T03:29:22.929Z,0
2016-11-14T03:30:23.598Z,0
2016-11-14T03:31:23.272Z,0
2016-11-14T03:32:23.281Z,0
2016-11-14T03:33:23.328Z,0
2016-11-14T03:34:22.987Z,0
2016-11-14T03:35:23.003Z,0
2016-11-14T03:36:23.331Z,0
2016-11-14T03:37:23.349Z,0
2016-11-14T03:38:23.361Z,0
2016-11-14T03:39:23.686Z,0
2016-11-14T03:40:23.695Z,0
2016-11-14T03:41:23.710Z,0
2016-11-14T03:42:23.761Z,0
2016-11-14T03:43:23.417Z,0
2016-11-14T03:44:23.431Z,0
2016-11-14T03:45:23.445Z,0
2016-11-14T03:46:23.514Z,0
2016-11-14T03:47:23.464Z,0
2016-11-14T03:48:23.846Z,0
2016-11-14T03:49:23.534Z,0
2016-11-14T03:50:23.537Z,0
2016-11-14T03:51:23.518Z,0
2016-11-14T03:52:23.852Z,0
2016-11-14T03:53:23.547Z,0
2016-11-14T03:54:23.869Z,0
2016-11-14T03:55:23.575Z,0
2016-11-14T03:56:23.264Z,0
2016-11-14T03:57:23.595Z,0
2016-11-14T03:58:23.607Z,0
2016-11-14T03:59:23.319Z,0
2016-11-14T04:00:24.264Z,0
2016-11-14T04:01:23.649Z,0
2016-11-14T04:02:23.973Z,0
2016-11-14T04:03:23.670Z,0
2016-11-14T04:04:23.364Z,0
2016-11-14T04:05:24.010Z,0
2016-11-14T04:06:24.039Z,0
2016-11-14T04:07:24.348Z,0
2016-11-14T04:08:23.412Z,0
2016-11-14T04:09:23.743Z,0
2016-11-14T04:10:24.072Z,0
2016-11-14T04:11:23.450Z,0
2016-11-14T04:12:24.096Z,0
2016-11-14T04:13:23.478Z,0
2016-11-14T04:14:24.123Z,0
2016-11-14T04:15:23.500Z,0
2016-11-14T04:16:23.509Z,0
2016-11-14T04:17:24.161Z,0
2016-11-14T04:18:23.852Z,0
2016-11-14T04:19:23.548Z,0
2016-11-14T04:20:23.887Z,0
2016-11-14T04:21:23.893Z,0
2016-11-14T04:22:23.904Z,0
2016-11-14T04:23:24.229Z,0
2016-11-14T04:24:23.925Z,0
2016-11-14T04:25:24.257Z,0
2016-11-14T04:26:24.268Z,0
2016-11-14T04:27:23.970Z,0
2016-11-14T04:28:23.665Z,0
2016-11-14T04:29:23.676Z,0
2016-11-14T04:30:24.006Z,0
2016-11-14T04:31:23.698Z,0
2016-11-14T04:32:24.338Z,0
2016-11-14T04:33:24.355Z,0
2016-11-14T04:34:24.054Z,0
2016-11-14T04:35:24.379Z,0
2016-11-14T04:36:24.394Z,0
2016-11-14T04:37:24.092Z,0
2016-11-14T04:38:24.424Z,0
2016-11-14T04:39:24.435Z,0
2016-11-14T04:40:24.137Z,0
2016-11-14T04:41:24.455Z,0
2016-11-14T04:42:24.462Z,0
2016-11-14T04:43:24.479Z,0
2016-11-14T04:44:24.176Z,0
2016-11-14T04:45:23.871Z,0
2016-11-14T04:46:24.832Z,0
2016-11-14T04:47:24.530Z,0
2016-11-14T04:48:24.543Z,0
2016-11-14T04:49:23.961Z,0
2016-11-14T04:50:24.559Z,0
2016-11-14T04:51:24.610Z,0
2016-11-14T04:52:24.273Z,0
2016-11-14T04:53:24.599Z,0
2016-11-14T04:54:24.300Z,0
2016-11-14T04:55:24.312Z,0
2016-11-14T04:56:24.318Z,0
2016-11-14T04:57:24.024Z,0
2016-11-14T04:58:24.026Z,0
2016-11-14T04:59:24.365Z,0
2016-11-14T05:00:24.687Z,0
2016-11-14T05:01:24.391Z,0
2016-11-14T05:02:24.717Z,0
2016-11-14T05:03:24.143Z,0
2016-11-14T05:04:24.428Z,0
2016-11-14T05:05:24.435Z,0
2016-11-14T05:06:24.762Z,0
2016-11-14T05:07:24.453Z,0
2016-11-14T05:08:24.470Z,0
2016-11-14T05:09:25.128Z,0
2016-11-14T05:10:24.492Z,0
2016-11-14T05:11:25.134Z,0
2016-11-14T05:12:24.519Z,0
2016-11-14T05:13:24.526Z,0
2016-11-14T05:14:24.887Z,0
2016-11-14T05:15:24.870Z,0
2016-11-14T05:16:24.566Z,0
2016-11-14T05:17:24.262Z,0
2016-11-14T05:18:24.582Z,0
2016-11-14T05:19:25.233Z,0
2016-11-14T05:20:24.610Z,0
2016-11-14T05:21:24.627Z,0
2016-11-14T05:22:24.643Z,0
2016-11-14T05:23:24.965Z,0
2016-11-14T05:24:24.976Z,0
2016-11-14T05:25:24.676Z,0
2016-11-14T05:26:24.689Z,0
2016-11-14T05:27:25.347Z,0
2016-11-14T05:28:24.708Z,0
2016-11-14T05:29:25.037Z,0
2016-11-14T05:30:25.370Z,0
2016-11-14T05:31:24.429Z,0
2016-11-14T05:32:24.462Z,0
2016-11-14T05:33:24.771Z,0
2016-11-14T05:34:24.484Z,0
2016-11-14T05:35:25.116Z,0
2016-11-14T05:36:25.128Z,0
2016-11-14T05:37:24.867Z,0
2016-11-14T05:38:25.505Z,0
2016-11-14T05:39:24.845Z,0
2016-11-14T05:40:25.173Z,0
2016-11-14T05:41:25.496Z,0
2016-11-14T05:42:24.884Z,0
2016-11-14T05:43:25.225Z,0
2016-11-14T05:44:24.592Z,0
2016-11-14T05:45:24.608Z,0
2016-11-14T05:46:24.933Z,0
2016-11-14T05:47:25.254Z,0
2016-11-14T05:48:24.955Z,0
2016-11-14T05:49:25.286Z,0
2016-11-14T05:50:25.296Z,0
2016-11-14T05:51:24.996Z,0
2016-11-14T05:52:24.687Z,0
2016-11-14T05:53:24.724Z,0
2016-11-14T05:54:25.360Z,0
2016-11-14T05:55:24.738Z,0
2016-11-14T05:56:25.053Z,0
2016-11-14T05:57:25.379Z,0
2016-11-14T05:58:25.389Z,0
2016-11-14T05:59:25.124Z,0
2016-11-14T06:00:24.790Z,0
2016-11-14T06:01:24.804Z,0
2016-11-14T06:02:25.127Z,0
2016-11-14T06:03:25.456Z,0
2016-11-14T06:04:25.467Z,0
2016-11-14T06:05:25.163Z,0
2016-11-14T06:06:25.489Z,4
2016-11-14T06:07:25.191Z,4
2016-11-14T06:08:25.207Z,4
2016-11-14T06:09:25.256Z,0
2016-11-14T06:10:25.227Z,0
2016-11-14T06:11:25.238Z,0
2016-11-14T06:12:25.259Z,4
2016-11-14T06:13:24.951Z,4
2016-11-14T06:14:25.318Z,4
2016-11-14T06:15:25.282Z,0
2016-11-14T06:16:25.296Z,4
2016-11-14T06:17:25.303Z,4
2016-11-14T06:18:25.317Z,4
2016-11-14T06:19:25.328Z,4
2016-11-14T06:20:25.347Z,8
2016-11-14T06:21:25.359Z,4
2016-11-14T06:22:25.065Z,4
2016-11-14T06:23:25.077Z,8
2016-11-14T06:24:25.402Z,8
2016-11-14T06:25:26.040Z,4
2016-11-14T06:26:25.736Z,8
2016-11-14T06:27:25.155Z,8
2016-11-14T06:28:25.133Z,8
2016-11-14T06:29:25.461Z,12
2016-11-14T06:30:25.463Z,12
2016-11-14T06:31:25.801Z,8
2016-11-14T06:32:26.138Z,12
2016-11-14T06:33:25.526Z,12
2016-11-14T06:34:25.835Z,12
2016-11-14T06:35:25.846Z,12
2016-11-14T06:36:26.171Z,16
2016-11-14T06:37:25.549Z,12
2016-11-14T06:38:25.563Z,16
2016-11-14T06:39:25.899Z,16
2016-11-14T06:40:25.643Z,16
2016-11-14T06:41:26.230Z,16
2016-11-14T06:42:25.609Z,16
2016-11-14T06:43:26.296Z,16
2016-11-14T06:44:26.322Z,20
2016-11-14T06:45:25.399Z,16
2016-11-14T06:46:25.659Z,20
2016-11-14T06:47:25.994Z,20
2016-11-14T06:48:25.685Z,20
2016-11-14T06:49:25.702Z,24
2016-11-14T06:50:26.034Z,24
2016-11-14T06:51:26.063Z,24
2016-11-14T06:52:25.737Z,24
2016-11-14T06:53:25.748Z,28
2016-11-14T06:54:26.387Z,24
2016-11-14T06:55:25.770Z,28
2016-11-14T06:56:25.786Z,24
2016-11-14T06:57:26.112Z,28
2016-11-14T06:58:26.128Z,28
2016-11-14T06:59:26.455Z,28
2016-11-14T07:00:26.152Z,28
2016-11-14T07:01:26.170Z,32
2016-11-14T07:02:25.867Z,32
2016-11-14T07:03:26.183Z,36
2016-11-14T07:04:25.882Z,36
2016-11-14T07:05:25.895Z,36
2016-11-14T07:06:26.533Z,40
2016-11-14T07:07:25.625Z,36
2016-11-14T07:08:26.248Z,36
2016-11-14T07:09:26.256Z,40
2016-11-14T07:10:26.599Z,40
2016-11-14T07:11:25.965Z,40
2016-11-14T07:12:25.987Z,40
2016-11-14T07:13:26.622Z,44
2016-11-14T07:14:26.002Z,44
2016-11-14T07:15:25.713Z,44
2016-11-14T07:16:26.022Z,48
2016-11-14T07:17:26.036Z,44
2016-11-14T07:18:26.052Z,48
2016-11-14T07:19:26.697Z,48
2016-11-14T07:20:26.389Z,48
2016-11-14T07:21:26.091Z,52
2016-11-14T07:22:26.743Z,48
2016-11-14T07:23:26.430Z,52
2016-11-14T07:24:26.752Z,52
2016-11-14T07:25:26.450Z,56
2016-11-14T07:26:26.778Z,56
2016-11-14T07:27:26.163Z,56
2016-11-14T07:28:26.806Z,60
2016-11-14T07:29:26.184Z,60
2016-11-14T07:30:26.516Z,60
2016-11-14T07:31:26.839Z,60
2016-11-14T07:32:26.537Z,64
2016-11-14T07:33:26.552Z,68
2016-11-14T07:34:26.565Z,64
2016-11-14T07:35:26.574Z,68
2016-11-14T07:36:25.965Z,68
2016-11-14T07:37:26.275Z,72
2016-11-14T07:38:26.620Z,72
2016-11-14T07:39:26.309Z,72
2016-11-14T07:40:25.961Z,72
2016-11-14T07:41:26.326Z,76
2016-11-14T07:42:26.651Z,76
2016-11-14T07:43:26.348Z,76
2016-11-14T07:44:26.681Z,76
2016-11-14T07:45:26.061Z,72
2016-11-14T07:46:26.076Z,72
2016-11-14T07:47:26.723Z,76
2016-11-14T07:48:26.097Z,76
2016-11-14T07:49:26.746Z,76
2016-11-14T07:50:26.444Z,76
2016-11-14T07:51:26.778Z,80
2016-11-14T07:52:26.792Z,84
2016-11-14T07:53:26.791Z,84
2016-11-14T07:54:26.490Z,88
2016-11-14T07:55:26.185Z,88
2016-11-14T07:56:26.826Z,92
2016-11-14T07:57:26.842Z,92
2016-11-14T07:58:26.849Z,92
2016-11-14T07:59:26.870Z,96
2016-11-14T08:00:26.563Z,92
2016-11-14T08:01:26.894Z,96
2016-11-14T08:02:26.920Z,92
2016-11-14T08:03:26.596Z,92
2016-11-14T08:04:26.927Z,96
2016-11-14T08:05:26.936Z,92
2016-11-14T08:06:26.974Z,96
2016-11-14T08:07:26.650Z,92
2016-11-14T08:08:26.657Z,100
2016-11-14T08:09:27.306Z,100
2016-11-14T08:10:26.687Z,104
2016-11-14T08:11:27.011Z,108
2016-11-14T08:12:27.037Z,104
2016-11-14T08:13:27.041Z,104
2016-11-14T08:14:27.049Z,104
2016-11-14T08:15:27.059Z,104
2016-11-14T08:16:27.100Z,108
2016-11-14T08:17:27.087Z,108
2016-11-14T08:18:27.096Z,108
2016-11-14T08:19:27.105Z,112
2016-11-14T08:20:27.441Z,112
2016-11-14T08:21:26.814Z,112
2016-11-14T08:22:26.833Z,116
2016-11-14T08:23:26.528Z,112
2016-11-14T08:24:27.185Z,112
2016-11-14T08:25:26.551Z,108
2016-11-14T08:26:26.570Z,112
2016-11-14T08:27:26.575Z,108
2016-11-14T08:28:27.216Z,108
2016-11-14T08:29:26.920Z,112
2016-11-14T08:30:26.930Z,116
2016-11-14T08:31:26.622Z,124
2016-11-14T08:32:26.978Z,124
2016-11-14T08:33:26.659Z,128
2016-11-14T08:34:27.318Z,128
2016-11-14T08:35:27.326Z,132
2016-11-14T08:36:26.689Z,132
2016-11-14T08:37:27.649Z,136
2016-11-14T08:38:27.343Z,132
2016-11-14T08:39:27.046Z,132
2016-11-14T08:40:26.734Z,136
2016-11-14T08:41:27.378Z,136
2016-11-14T08:42:27.123Z,136
2016-11-14T08:43:27.114Z,136
2016-11-14T08:44:27.101Z,136
2016-11-14T08:45:27.460Z,136
2016-11-14T08:46:26.825Z,136
2016-11-14T08:47:27.151Z,136
2016-11-14T08:48:26.856Z,140
2016-11-14T08:49:27.475Z,136
2016-11-14T08:50:26.860Z,132
2016-11-14T08:51:27.191Z,136
2016-11-14T08:52:27.526Z,140
2016-11-14T08:53:27.538Z,148
2016-11-14T08:54:27.577Z,152
2016-11-14T08:55:27.241Z,160
2016-11-14T08:56:27.270Z,160
2016-11-14T08:57:27.284Z,164
2016-11-14T08:58:26.969Z,168
2016-11-14T08:59:27.298Z,168
2016-11-14T09:00:27.402Z,164
2016-11-14T09:01:27.990Z,160
2016-11-14T09:02:27.332Z,160
2016-11-14T09:03:27.028Z,160
2016-11-14T09:04:27.357Z,164
2016-11-14T09:05:27.371Z,164
2016-11-14T09:06:27.389Z,156
2016-11-14T09:07:27.397Z,160
2016-11-14T09:08:27.401Z,160
2016-11-14T09:09:27.768Z,164
2016-11-14T09:10:28.095Z,168
2016-11-14T09:11:27.441Z,172
2016-11-14T09:12:27.773Z,172
2016-11-14T09:13:27.463Z,168
2016-11-14T09:14:27.811Z,160
2016-11-14T09:15:27.808Z,152
2016-11-14T09:16:27.191Z,148
2016-11-14T09:17:28.173Z,152
2016-11-14T09:18:27.218Z,156
2016-11-14T09:19:27.542Z,160
2016-11-14T09:20:27.869Z,160
2016-11-14T09:21:27.891Z,160
2016-11-14T09:22:27.588Z,160
2016-11-14T09:23:27.283Z,164
2016-11-14T09:24:27.293Z,164
2016-11-14T09:25:27.935Z,164
2016-11-14T09:26:27.638Z,164
2016-11-14T09:27:27.645Z,164
2016-11-14T09:28:27.672Z,164
2016-11-14T09:29:27.983Z,164
2016-11-14T09:30:27.995Z,164
2016-11-14T09:31:27.691Z,160
2016-11-14T09:32:27.388Z,160
2016-11-14T09:33:28.035Z,160
2016-11-14T09:34:27.771Z,156
2016-11-14T09:35:28.070Z,160
2016-11-14T09:36:28.081Z,156
2016-11-14T09:37:28.085Z,156
2016-11-14T09:38:27.782Z,160
2016-11-14T09:39:28.128Z,160
2016-11-14T09:40:27.832Z,160
2016-11-14T09:41:27.819Z,156
2016-11-14T09:42:27.943Z,160
2016-11-14T09:43:27.869Z,164
2016-11-14T09:44:28.207Z,176
2016-11-14T09:45:27.883Z,192
2016-11-14T09:46:28.203Z,192
2016-11-14T09:47:28.211Z,192
2016-11-14T09:48:28.229Z,192
2016-11-14T09:49:27.922Z,188
2016-11-14T09:50:27.937Z,184
2016-11-14T09:51:28.282Z,188
2016-11-14T09:52:27.650Z,188
2016-11-14T09:53:27.661Z,188
2016-11-14T09:54:28.300Z,188
2016-11-14T09:55:28.001Z,184
2016-11-14T09:56:28.645Z,180
2016-11-14T09:57:28.030Z,180
2016-11-14T09:58:28.387Z,180
2016-11-14T09:59:28.055Z,176
2016-11-14T10:00:28.395Z,184
2016-11-14T10:01:28.399Z,188
2016-11-14T10:02:28.111Z,196
2016-11-14T10:03:28.095Z,192
2016-11-14T10:04:28.435Z,188
2016-11-14T10:05:28.122Z,188
2016-11-14T10:06:28.174Z,188
2016-11-14T10:07:28.468Z,184
2016-11-14T10:08:28.838Z,188
2016-11-14T10:09:28.507Z,188
2016-11-14T10:10:27.881Z,192
2016-11-14T10:11:28.211Z,200
2016-11-14T10:12:28.221Z,196
2016-11-14T10:13:28.544Z,196
2016-11-14T10:14:28.242Z,196
2016-11-14T10:15:28.373Z,204
2016-11-14T10:16:28.270Z,220
2016-11-14T10:17:28.293Z,220
2016-11-14T10:18:28.622Z,224
2016-11-14T10:19:28.625Z,228
2016-11-14T10:20:28.634Z,240
2016-11-14T10:21:28.337Z,244
2016-11-14T10:22:28.345Z,252
2016-11-14T10:23:28.368Z,260
2016-11-14T10:24:28.694Z,264
2016-11-14T10:25:28.434Z,272
2016-11-14T10:26:28.726Z,272
2016-11-14T10:27:28.409Z,280
2016-11-14T10:28:28.427Z,280
2016-11-14T10:29:28.772Z,276
2016-11-14T10:30:28.766Z,264
2016-11-14T10:31:28.152Z,260
2016-11-14T10:32:28.808Z,264
2016-11-14T10:33:28.828Z,268
2016-11-14T10:34:28.185Z,272
2016-11-14T10:35:28.513Z,276
2016-11-14T10:36:28.565Z,264
2016-11-14T10:37:28.862Z,256
2016-11-14T10:38:28.558Z,252
2016-11-14T10:39:28.565Z,256
2016-11-14T10:40:29.210Z,264
2016-11-14T10:41:28.594Z,276
2016-11-14T10:42:28.605Z,288
2016-11-14T10:43:28.947Z,296
2016-11-14T10:44:28.629Z,304
2016-11-14T10:45:28.654Z,316
2016-11-14T10:46:28.970Z,324
2016-11-14T10:47:29.017Z,324
2016-11-14T10:48:28.678Z,312
2016-11-14T10:49:28.691Z,300
2016-11-14T10:50:28.713Z,304
2016-11-14T10:51:29.033Z,304
2016-11-14T10:52:29.050Z,296
2016-11-14T10:53:28.747Z,292
2016-11-14T10:54:28.766Z,284
2016-11-14T10:55:28.775Z,272
2016-11-14T10:56:29.106Z,256
2016-11-14T10:57:28.798Z,240
2016-11-14T10:58:28.502Z,232
2016-11-14T10:59:29.136Z,228
2016-11-14T11:00:29.463Z,224
2016-11-14T11:01:29.168Z,220
2016-11-14T11:02:28.548Z,220
2016-11-14T11:03:28.559Z,216
2016-11-14T11:04:28.892Z,220
2016-11-14T11:05:28.901Z,228
2016-11-14T11:06:28.920Z,224
2016-11-14T11:07:29.243Z,236
2016-11-14T11:08:29.253Z,244
2016-11-14T11:09:28.953Z,248
2016-11-14T11:10:28.647Z,252
2016-11-14T11:11:28.988Z,252
2016-11-14T11:12:29.309Z,260
2016-11-14T11:13:29.009Z,268
2016-11-14T11:14:28.702Z,272
2016-11-14T11:15:29.034Z,268
2016-11-14T11:16:29.044Z,256
2016-11-14T11:17:28.756Z,252
2016-11-14T11:18:28.756Z,240
2016-11-14T11:19:29.415Z,232
2016-11-14T11:20:29.725Z,232
2016-11-14T11:21:29.128Z,228
2016-11-14T11:22:29.124Z,236
2016-11-14T11:23:29.140Z,244
2016-11-14T11:24:28.843Z,252
2016-11-14T11:25:29.476Z,248
2016-11-14T11:26:29.183Z,252
2016-11-14T11:27:28.871Z,244
2016-11-14T11:28:29.211Z,232
2016-11-14T11:29:29.531Z,228
2016-11-14T11:30:29.558Z,224
2016-11-14T11:31:28.935Z,232
2016-11-14T11:32:29.565Z,240
2016-11-14T11:33:29.611Z,244
2016-11-14T11:34:29.910Z,240
2016-11-14T11:35:28.983Z,240
2016-11-14T11:36:29.624Z,236
2016-11-14T11:37:29.354Z,240
2016-11-14T11:38:29.331Z,244
2016-11-14T11:39:29.346Z,244
2016-11-14T11:40:29.368Z,244
2016-11-14T11:41:29.376Z,236
2016-11-14T11:42:29.386Z,236
2016-11-14T11:43:29.087Z,232
2016-11-14T11:44:29.734Z,232
2016-11-14T11:45:29.747Z,224
2016-11-14T11:46:29.440Z,232
2016-11-14T11:47:29.490Z,232
2016-11-14T11:48:29.778Z,236
2016-11-14T11:49:29.793Z,236
2016-11-14T11:50:29.176Z,240
2016-11-14T11:51:29.852Z,236
2016-11-14T11:52:29.860Z,232
2016-11-14T11:53:29.535Z,232
2016-11-14T11:54:29.227Z,224
2016-11-14T11:55:29.894Z,220
2016-11-14T11:56:29.280Z,216
2016-11-14T11:57:29.605Z,216
2016-11-14T11:58:29.912Z,228
2016-11-14T11:59:29.294Z,224
2016-11-14T12:00:29.936Z,224
2016-11-14T12:01:29.942Z,220
2016-11-14T12:02:29.655Z,220
2016-11-14T12:03:29.341Z,224
2016-11-14T12:04:29.674Z,228
2016-11-14T12:05:29.378Z,228
2016-11-14T12:06:29.701Z,232
2016-11-14T12:07:29.715Z,236
2016-11-14T12:08:29.723Z,236
2016-11-14T12:09:29.748Z,236
2016-11-14T12:10:29.770Z,232
2016-11-14T12:11:29.762Z,228
2016-11-14T12:12:30.102Z,228
2016-11-14T12:13:29.795Z,236
2016-11-14T12:14:30.130Z,240
2016-11-14T12:15:29.831Z,248
2016-11-14T12:16:30.147Z,252
2016-11-14T12:17:29.850Z,256
2016-11-14T12:18:30.349Z,260
2016-11-14T12:19:30.181Z,256
2016-11-14T12:20:30.204Z,252
2016-11-14T12:21:30.208Z,248
2016-11-14T12:22:29.914Z,244
2016-11-14T12:23:29.617Z,244
2016-11-14T12:24:29.932Z,244
2016-11-14T12:25:29.948Z,248
2016-11-14T12:26:29.644Z,252
2016-11-14T12:27:30.289Z,252
2016-11-14T12:28:30.320Z,248
2016-11-14T12:29:30.003Z,240
2016-11-14T12:30:30.646Z,228
2016-11-14T12:31:30.341Z,220
2016-11-14T12:32:30.379Z,216
2016-11-14T12:33:30.048Z,212
2016-11-14T12:34:30.069Z,216
2016-11-14T12:35:30.397Z,216
2016-11-14T12:36:30.093Z,216
2016-11-14T12:37:29.796Z,216
2016-11-14T12:38:30.132Z,212
2016-11-14T12:39:30.326Z,212
2016-11-14T12:40:30.502Z,204
2016-11-14T12:41:30.158Z,200
2016-11-14T12:42:30.175Z,200
2016-11-14T12:43:30.506Z,196
2016-11-14T12:44:30.201Z,196
2016-11-14T12:45:30.528Z,196
2016-11-14T12:46:30.872Z,196
2016-11-14T12:48:30.258Z,200
2016-11-14T12:49:30.270Z,208
2016-11-14T12:50:30.598Z,216
2016-11-14T12:51:30.614Z,216
2016-11-14T12:52:30.314Z,216
2016-11-14T12:53:30.007Z,220
2016-11-14T12:54:30.022Z,220
2016-11-14T12:55:30.872Z,224
2016-11-14T12:56:30.362Z,236
2016-11-14T12:57:30.375Z,248
2016-11-14T12:58:30.708Z,268
2016-11-14T12:59:30.403Z,296
2016-11-14T13:00:30.419Z,316
2016-11-14T13:01:30.430Z,328
2016-11-14T13:02:30.562Z,352
2016-11-14T13:03:30.145Z,380
2016-11-14T13:04:30.472Z,956
2016-11-14T13:05:30.482Z,992
2016-11-14T13:06:30.812Z,976
2016-11-14T13:07:30.822Z,972
2016-11-14T13:08:30.848Z,1024
2016-11-14T13:09:30.852Z,1032
2016-11-14T13:10:30.584Z,1000
2016-11-14T13:11:30.590Z,980
2016-11-14T13:12:30.597Z,956
2016-11-14T13:13:30.627Z,976
2016-11-14T13:14:30.316Z,960
2016-11-14T13:15:30.621Z,912
2016-11-14T13:16:30.969Z,928
2016-11-14T13:17:30.328Z,928
2016-11-14T13:18:30.667Z,924
2016-11-14T13:19:30.360Z,900
2016-11-14T13:20:31.006Z,864
2016-11-14T13:21:30.709Z,828
2016-11-14T13:22:31.039Z,884
2016-11-14T13:23:30.743Z,848
2016-11-14T13:24:30.746Z,712
2016-11-14T13:25:31.093Z,828
2016-11-14T13:26:31.089Z,828
2016-11-14T13:27:31.101Z,820
2016-11-14T13:28:31.447Z,768
2016-11-14T13:29:30.818Z,832
2016-11-14T13:30:30.829Z,836
2016-11-14T13:31:31.168Z,832
2016-11-14T13:32:31.179Z,828
2016-11-14T13:33:31.205Z,840
2016-11-14T13:34:30.574Z,392
2016-11-14T13:35:31.532Z,648
2016-11-14T13:36:30.911Z,780
2016-11-14T13:37:30.945Z,756
2016-11-14T13:38:30.630Z,748
2016-11-14T13:39:31.276Z,688
2016-11-14T13:40:30.660Z,740
2016-11-14T13:41:30.698Z,736
2016-11-14T13:42:31.323Z,716
2016-11-14T13:43:31.019Z,700
2016-11-14T13:44:31.030Z,688
2016-11-14T13:45:31.358Z,644
2016-11-14T13:46:31.398Z,696
2016-11-14T13:47:31.397Z,704
2016-11-14T13:48:31.726Z,704
2016-11-14T13:49:31.418Z,708
2016-11-14T13:50:31.124Z,700
2016-11-14T13:51:31.137Z,688
2016-11-14T13:52:31.465Z,668
2016-11-14T13:53:31.163Z,636
2016-11-14T13:54:31.205Z,616
2016-11-14T13:55:31.196Z,596
2016-11-14T13:56:31.218Z,580
2016-11-14T13:57:30.913Z,576
2016-11-14T13:58:31.239Z,564
2016-11-14T13:59:31.604Z,560
2016-11-14T14:00:31.266Z,532
2016-11-14T14:01:31.729Z,564
2016-11-14T14:02:31.299Z,548
2016-11-14T14:03:31.329Z,564
2016-11-14T14:04:31.656Z,544
2016-11-14T14:05:31.341Z,556
2016-11-14T14:06:31.360Z,552
2016-11-14T14:07:31.376Z,548
2016-11-14T14:08:31.389Z,548
2016-11-14T14:09:31.756Z,532
2016-11-14T14:10:31.417Z,500
2016-11-14T14:11:31.434Z,524
2016-11-14T14:12:31.476Z,520
2016-11-14T14:13:31.153Z,504
2016-11-14T14:14:31.811Z,496
2016-11-14T14:15:31.498Z,492
2016-11-14T14:16:31.522Z,472
2016-11-14T14:17:31.858Z,460